Ramona, South Dakota
Current Conditions -  °F | °C
As of 6:35 PM on Saturday 25 Oct 2014 (Local Time) from KMDS Reporting Station
Clear Clear  
Wind Chill: 57°   Ceiling: Unl
Heat Index: 57°   Visibility: 10mi
Dew Point: 27°   Wind: 7mph
Humidity: 31%   Direction: 50°NE
Pressure: 30.08"   Gusts: NA
Location:  44.12°N, 97.22°W
Report Text: KMDS 252335Z AUTO 05006KT 10SM CLR 14/M03 A3008 RMK AO2
Loading
Personal Weather Stations






























Interactive Weather Map
Tropical Storm Tracking
New forecast layout! Learn more

10-Day Weather Forecast

Advertisements
Track Severe Weather on mobile